Time;durP1;ratioP1;P1;durP2;ratioP2;P2;SDS_P1;SDS_P2;PMS_P1;PMS_P2;Temp;Humidity;BMP_temperature;BMP_pressure;BME280_temperature;BME280_humidity;BME280_pressure;Samples;Min_cycle;Max_cycle;Signal;HPM_P1;HPM_P2
2023/10/06 00:03:17;;;;;;;0.10;0.10;;;;;;;5.64;72.76;99781.81;10473175;28;20043;-43
2023/10/06 00:08:21;;;;;;;0.22;0.22;;;;;;;5.68;73.12;99797.31;10492461;28;20040;-41
2023/10/06 00:13:29;;;;;;;0.20;0.20;;;;;;;5.72;73.72;99803.84;10494604;28;20040;-42
2023/10/06 00:18:36;;;;;;;0.20;0.20;;;;;;;5.61;73.61;99815.81;10489697;28;20424;-44
2023/10/06 00:23:42;;;;;;;0.52;0.40;;;;;;;5.60;74.30;99816.91;10493652;28;20546;-46
2023/10/06 00:28:47;;;;;;;0.55;0.40;;;;;;;5.54;74.02;99831.56;10486943;28;20033;-42
2023/10/06 00:33:50;;;;;;;0.10;0.10;;;;;;;5.62;74.64;99838.41;10480028;28;20424;-44
2023/10/06 00:38:52;;;;;;;0.95;0.30;;;;;;;5.35;76.22;99850.28;10488375;28;20037;-43
2023/10/06 00:43:56;;;;;;;0.47;0.20;;;;;;;5.48;76.71;99851.69;10469964;28;20043;-46
2023/10/06 00:49:04;;;;;;;0.82;0.30;;;;;;;5.43;77.76;99857.94;10487973;28;20562;-47
2023/10/06 00:54:07;;;;;;;0.35;0.32;;;;;;;5.35;76.45;99882.09;10490135;28;20563;-45
2023/10/06 00:59:12;;;;;;;0.50;0.20;;;;;;;5.26;76.75;99889.97;10486138;28;20419;-46
2023/10/06 01:04:16;;;;;;;0.10;0.10;;;;;;;5.45;76.43;99898.47;10492558;28;20041;-44
2023/10/06 01:09:18;;;;;;;0.52;0.30;;;;;;;5.30;76.49;99895.69;10496883;28;20431;-43
2023/10/06 01:14:26;;;;;;;1.13;0.30;;;;;;;5.28;76.12;99903.28;10487698;28;20039;-45
2023/10/06 01:19:33;;;;;;;0.28;0.20;;;;;;;5.34;75.58;99908.50;10487800;28;20029;-43
2023/10/06 01:24:35;;;;;;;0.30;0.20;;;;;;;5.30;76.02;99918.28;10490749;28;20044;-45
2023/10/06 01:29:38;;;;;;;1.52;0.28;;;;;;;5.29;75.11;99932.94;10486218;28;20052;-40
2023/10/06 01:34:40;;;;;;;1.02;0.30;;;;;;;5.35;74.58;99937.31;10488367;28;20049;-42
2023/10/06 01:39:44;;;;;;;0.40;0.40;;;;;;;5.30;75.11;99942.75;10488781;28;20044;-40
2023/10/06 01:44:46;;;;;;;0.10;0.10;;;;;;;5.17;75.52;99947.81;10489976;28;20537;-40
2023/10/06 01:49:49;;;;;;;1.08;0.20;;;;;;;4.91;75.51;99961.25;10486263;28;20045;-40
2023/10/06 01:54:51;;;;;;;1.02;0.50;;;;;;;4.92;75.01;99972.97;10487673;28;20044;-42
2023/10/06 01:59:53;;;;;;;0.70;0.20;;;;;;;4.63;75.96;99973.25;10474359;28;20082;-42
2023/10/06 02:04:59;;;;;;;0.30;0.17;;;;;;;4.63;76.28;99984.13;10488488;28;20032;-43
2023/10/06 02:10:02;;;;;;;1.63;0.38;;;;;;;4.67;76.66;99998.00;10470752;28;20542;-40
2023/10/06 02:15:10;;;;;;;0.57;0.30;;;;;;;4.56;77.26;100004.44;10487652;28;20045;-45
2023/10/06 02:20:28;;;;;;;0.57;0.40;;;;;;;4.33;78.22;100025.38;10489037;28;20558;-43
2023/10/06 02:25:31;;;;;;;0.43;0.30;;;;;;;4.23;77.90;100042.41;10488365;28;20041;-44
2023/10/06 02:30:34;;;;;;;0.60;0.30;;;;;;;4.05;77.85;100036.47;10479337;28;20130;-42
2023/10/06 02:35:42;;;;;;;0.55;0.40;;;;;;;4.02;78.86;100059.53;10487387;28;20408;-45
2023/10/06 02:40:48;;;;;;;1.17;0.52;;;;;;;3.98;78.51;100060.25;10488007;28;20064;-42
2023/10/06 02:45:51;;;;;;;0.50;0.30;;;;;;;3.85;78.50;100073.16;10472523;28;20044;-45
2023/10/06 02:50:56;;;;;;;0.32;0.30;;;;;;;3.84;78.59;100078.81;10491349;28;20059;-43
2023/10/06 02:56:07;;;;;;;1.42;0.52;;;;;;;3.85;78.46;100091.31;10478996;28;20090;-47
2023/10/06 03:01:11;;;;;;;0.30;0.30;;;;;;;3.73;79.26;100107.69;10496208;28;20039;-40
2023/10/06 03:06:17;;;;;;;1.95;0.28;;;;;;;3.67;79.25;100106.00;10482882;28;20048;-41
2023/10/06 03:11:23;;;;;;;0.60;0.50;;;;;;;3.63;80.56;100110.25;10484181;28;20049;-42
2023/10/06 03:16:27;;;;;;;0.30;0.30;;;;;;;3.78;80.29;100123.22;10473112;28;20076;-43
2023/10/06 03:21:30;;;;;;;0.68;0.38;;;;;;;3.63;81.03;100132.78;10485697;28;20036;-45
2023/10/06 03:26:38;;;;;;;0.22;0.20;;;;;;;3.58;81.08;100140.84;10481272;28;20040;-43
2023/10/06 03:31:47;;;;;;;0.45;0.20;;;;;;;3.50;81.46;100148.59;10462292;28;20512;-46
2023/10/06 03:36:53;;;;;;;4.90;0.43;;;;;;;3.63;81.99;100159.09;10466185;28;20033;-44
2023/10/06 03:42:00;;;;;;;0.30;0.30;;;;;;;3.54;81.33;100166.00;10464418;28;20049;-43
2023/10/06 03:47:07;;;;;;;;;;;;;;;3.47;82.89;100179.75;10480926;28;20044;-42
2023/10/06 03:52:10;;;;;;;0.57;0.30;;;;;;;3.31;82.99;100180.53;10490146;28;19924;-40
2023/10/06 03:57:15;;;;;;;0.60;0.30;;;;;;;3.23;82.66;100198.03;10480234;28;20029;-45
2023/10/06 04:02:19;;;;;;;0.73;0.50;;;;;;;3.35;83.48;100197.97;10474596;28;20040;-42
2023/10/06 04:07:23;;;;;;;0.30;0.30;;;;;;;3.65;83.62;100211.25;10484908;28;20040;-40
2023/10/06 04:12:25;;;;;;;0.85;0.50;;;;;;;3.30;83.03;100214.97;10482037;28;20040;-44
2023/10/06 04:17:29;;;;;;;1.05;0.50;;;;;;;3.26;83.90;100224.63;10483333;28;20420;-40
2023/10/06 04:22:36;;;;;;;1.33;0.40;;;;;;;3.09;84.15;100245.47;10486055;28;20040;-42
2023/10/06 04:27:38;;;;;;;0.82;0.40;;;;;;;3.01;84.13;100249.38;10483078;28;20048;-39
2023/10/06 04:32:40;;;;;;;0.47;0.20;;;;;;;3.19;85.15;100251.09;10479461;28;20070;-41
2023/10/06 04:37:42;;;;;;;0.35;0.32;;;;;;;4.07;79.57;100254.25;10480925;28;20032;-45
2023/10/06 04:42:47;;;;;;;1.13;0.50;;;;;;;4.10;80.02;100270.03;10482065;28;20037;-44
2023/10/06 04:47:49;;;;;;;1.33;0.50;;;;;;;4.10;79.29;100270.84;10497625;28;20045;-45
2023/10/06 04:52:54;;;;;;;2.83;0.80;;;;;;;4.13;79.70;100291.25;10504847;28;20032;-49
2023/10/06 04:57:56;;;;;;;0.70;0.60;;;;;;;4.38;78.87;100294.38;10493879;28;20420;-49
2023/10/06 05:02:59;;;;;;;3.05;0.60;;;;;;;4.08;78.91;100313.72;10477679;28;20516;-47
2023/10/06 05:08:02;;;;;;;0.43;0.43;;;;;;;5.08;77.44;100320.06;10479246;28;20037;-43
2023/10/06 05:13:06;;;;;;;1.38;0.50;;;;;;;5.50;73.39;100316.75;10487358;28;20052;-46
2023/10/06 05:18:13;;;;;;;0.47;0.40;;;;;;;7.38;69.55;100324.41;10494049;28;20049;-47
2023/10/06 05:23:15;;;;;;;0.40;0.40;;;;;;;8.20;64.97;100327.31;10500218;28;20051;-48
2023/10/06 05:28:17;;;;;;;2.72;0.52;;;;;;;8.28;62.91;100340.41;10531119;28;20048;-51
2023/10/06 05:33:21;;;;;;;1.40;0.70;;;;;;;7.17;64.88;100352.72;10530876;28;20044;-48
2023/10/06 05:38:24;;;;;;;1.98;0.52;;;;;;;7.87;64.43;100351.31;10530849;28;20032;-52
2023/10/06 05:43:30;;;;;;;0.80;0.50;;;;;;;7.70;64.46;100364.38;10531244;28;20040;-46
2023/10/06 05:48:34;;;;;;;0.60;0.60;;;;;;;8.52;62.37;100366.16;10530345;28;20047;-50
2023/10/06 05:53:38;;;;;;;0.95;0.65;;;;;;;7.93;63.63;100376.72;10529057;28;20045;-51
2023/10/06 05:58:43;;;;;;;3.05;0.85;;;;;;;7.98;63.15;100377.53;10530059;28;20566;-50
2023/10/06 06:03:46;;;;;;;0.95;0.77;;;;;;;8.74;60.66;100385.00;10499887;28;20045;-46
2023/10/06 06:08:48;;;;;;;1.75;0.70;;;;;;;8.77;60.78;100385.28;10427665;28;20041;-51
2023/10/06 06:13:51;;;;;;;1.45;0.73;;;;;;;8.12;61.86;100388.78;10445824;28;20037;-51
2023/10/06 06:18:54;;;;;;;1.17;0.73;;;;;;;8.84;60.44;100406.06;10446503;28;20040;-52
2023/10/06 06:23:57;;;;;;;0.88;0.80;;;;;;;8.67;60.32;100401.69;10446447;28;20052;-50
2023/10/06 06:29:02;;;;;;;3.05;0.70;;;;;;;9.39;59.94;100402.41;10445854;28;20052;-50
2023/10/06 06:34:05;;;;;;;2.05;0.90;;;;;;;8.73;60.54;100422.50;10446279;28;20034;-50
2023/10/06 06:39:10;;;;;;;0.98;0.70;;;;;;;9.75;58.61;100418.69;10444402;28;20044;-50
2023/10/06 06:44:13;;;;;;;3.92;1.48;;;;;;;10.33;56.10;100427.97;10445244;28;20056;-50
2023/10/06 06:49:17;;;;;;;1.27;1.10;;;;;;;10.07;57.95;100435.53;10427259;28;20068;-49
2023/10/06 06:54:20;;;;;;;0.80;0.60;;;;;;;10.84;54.75;100436.63;10445066;28;20052;-53
2023/10/06 06:59:22;;;;;;;1.42;0.80;;;;;;;11.15;53.86;100430.88;10477977;28;20723;-51
2023/10/06 07:04:28;;;;;;;1.27;0.88;;;;;;;10.70;54.71;100448.56;10485728;28;20543;-51
2023/10/06 07:09:30;;;;;;;1.33;0.70;;;;;;;10.37;55.50;100461.13;10485460;28;20067;-49
2023/10/06 07:14:33;;;;;;;3.08;0.80;;;;;;;11.10;53.84;100458.34;10459161;28;20048;-50
2023/10/06 07:19:36;;;;;;;1.45;0.52;;;;;;;11.10;53.50;100467.41;10444187;28;20030;-48
2023/10/06 07:24:40;;;;;;;1.60;0.60;;;;;;;11.68;52.92;100472.06;10444143;28;20041;-49
2023/10/06 07:29:43;;;;;;;2.60;0.80;;;;;;;11.28;53.33;100481.53;10443359;28;20061;-52
2023/10/06 07:34:47;;;;;;;0.50;0.45;;;;;;;11.84;52.42;100484.53;10425982;28;20037;-50
2023/10/06 07:39:49;;;;;;;0.63;0.52;;;;;;;10.91;53.01;100488.44;10444310;28;20033;-50
2023/10/06 07:44:52;;;;;;;1.08;0.70;;;;;;;11.59;52.13;100482.03;10425764;28;20060;-48
2023/10/06 07:49:55;;;;;;;1.63;0.52;;;;;;;12.35;49.84;100487.44;10443369;28;20037;-49
2023/10/06 07:54:57;;;;;;;1.67;0.50;;;;;;;13.31;48.74;100492.56;10443231;28;20520;-49
2023/10/06 08:00:04;;;;;;;2.78;0.90;;;;;;;13.31;47.67;100491.75;10465929;28;20044;-49
2023/10/06 08:05:17;;;;;;;1.27;0.60;;;;;;;13.36;47.04;100503.47;10486277;28;20043;-46
2023/10/06 08:10:19;;;;;;;1.08;0.70;;;;;;;14.30;44.93;100505.78;10489755;28;20397;-40
2023/10/06 08:15:22;;;;;;;2.05;0.63;;;;;;;13.67;46.13;100508.44;10483975;28;20059;-42
2023/10/06 08:20:25;;;;;;;2.05;0.60;;;;;;;12.65;48.22;100521.13;10491297;28;20039;-40
2023/10/06 08:25:27;;;;;;;2.75;0.70;;;;;;;12.26;47.93;100524.97;10468349;28;20049;-40
2023/10/06 08:30:31;;;;;;;0.70;0.43;;;;;;;12.20;48.12;100530.84;10478865;28;20045;-44
2023/10/06 08:35:36;;;;;;;1.27;0.60;;;;;;;11.84;48.24;100528.53;10501086;28;20041;-40
2023/10/06 08:40:42;;;;;;;0.70;0.55;;;;;;;12.02;48.03;100536.03;10503903;28;20039;-39
2023/10/06 08:45:44;;;;;;;0.63;0.63;;;;;;;11.69;48.99;100542.41;10486794;28;20405;-37
2023/10/06 08:50:47;;;;;;;1.33;0.70;;;;;;;9.23;54.40;100548.66;10507208;28;20083;-38
2023/10/06 08:55:50;;;;;;;2.05;0.95;;;;;;;8.83;54.33;100552.16;10486119;28;20047;-38
2023/10/06 09:00:52;;;;;;;1.30;0.75;;;;;;;8.34;54.90;100563.56;10492898;28;20037;-43
2023/10/06 09:05:54;;;;;;;0.90;0.60;;;;;;;8.40;56.40;100559.75;10488885;28;20041;-42
2023/10/06 09:10:56;;;;;;;0.80;0.70;;;;;;;8.19;55.64;100558.81;10491759;28;20582;-43
2023/10/06 09:16:02;;;;;;;2.60;0.55;;;;;;;8.22;55.77;100561.00;10489322;28;20057;-46
2023/10/06 09:21:19;;;;;;;1.20;0.60;;;;;;;8.55;55.97;100578.94;10487377;28;20029;-44
2023/10/06 09:26:27;;;;;;;0.68;0.50;;;;;;;8.45;54.55;100585.19;10519305;28;20120;-47
2023/10/06 09:31:36;;;;;;;0.50;0.50;;;;;;;8.08;52.97;100574.34;10488240;28;20056;-46
2023/10/06 09:36:42;;;;;;;1.45;0.60;;;;;;;7.94;51.04;100578.63;10488330;28;20049;-47
2023/10/06 09:41:47;;;;;;;0.68;0.65;;;;;;;7.76;51.59;100587.28;10486523;28;20037;-43
2023/10/06 09:46:53;;;;;;;2.25;0.40;;;;;;;8.20;51.23;100592.44;10489564;28;20045;-43
2023/10/06 09:52:01;;;;;;;1.52;0.60;;;;;;;8.23;49.75;100597.38;10485157;28;20132;-44
2023/10/06 09:57:04;;;;;;;1.65;0.52;;;;;;;8.30;49.45;100603.41;10480074;28;20041;-46
2023/10/06 10:02:11;;;;;;;1.17;0.63;;;;;;;8.31;49.72;100605.88;10472598;28;20044;-43
2023/10/06 10:07:14;;;;;;;0.55;0.40;;;;;;;8.22;49.24;100598.47;10479912;28;20820;-46
2023/10/06 10:13:07;;;;;;;0.73;0.40;;;;;;;8.25;49.97;100609.69;10490056;28;20039;-47
2023/10/06 10:18:21;;;;;;;1.42;0.60;;;;;;;8.30;48.65;100617.06;10482109;28;20440;-43
2023/10/06 10:23:24;;;;;;;3.80;0.82;;;;;;;8.46;49.73;100602.41;10496393;28;20040;-43
2023/10/06 10:28:27;;;;;;;1.33;0.60;;;;;;;8.42;50.15;100613.06;10485511;28;20037;-44
2023/10/06 10:33:37;;;;;;;2.03;0.70;;;;;;;8.44;50.54;100607.31;10488466;28;20432;-44
2023/10/06 10:38:41;;;;;;;1.00;0.45;;;;;;;8.42;50.38;100621.25;10496988;28;20037;-45
2023/10/06 10:43:48;;;;;;;2.75;0.85;;;;;;;8.29;51.00;100616.25;10482581;28;20041;-47
2023/10/06 10:48:52;;;;;;;0.53;0.40;;;;;;;8.51;50.82;100613.38;10485955;28;20048;-45
2023/10/06 10:53:54;;;;;;;1.60;0.40;;;;;;;8.49;49.08;100607.34;10484889;28;20058;-46
2023/10/06 10:58:57;;;;;;;0.85;0.65;;;;;;;8.34;49.50;100602.66;10484299;28;20036;-46
2023/10/06 11:04:18;;;;;;;0.40;0.38;;;;;;;8.26;50.53;100597.66;10474838;28;20060;-47
2023/10/06 11:09:30;;;;;;;0.60;0.60;;;;;;;8.31;49.63;100603.13;10469117;28;20512;-43
2023/10/06 11:14:38;;;;;;;1.13;0.80;;;;;;;8.46;48.53;100596.94;10487852;28;20052;-39
2023/10/06 11:19:40;;;;;;;0.93;0.60;;;;;;;8.23;48.45;100590.00;10501363;28;20055;-39
2023/10/06 11:24:44;;;;;;;0.85;0.40;;;;;;;8.35;47.46;100590.63;10525190;28;20044;-39
2023/10/06 11:29:46;;;;;;;0.45;0.30;;;;;;;8.23;47.08;100584.53;10503080;28;20063;-41
2023/10/06 11:34:50;;;;;;;1.85;0.40;;;;;;;8.20;48.18;100584.25;10483123;28;20041;-47
2023/10/06 11:39:53;;;;;;;0.20;0.20;;;;;;;8.15;48.57;100574.91;10485003;28;20063;-45
2023/10/06 11:44:57;;;;;;;0.57;0.40;;;;;;;8.18;46.96;100570.03;10484625;28;20049;-48
2023/10/06 11:50:01;;;;;;;1.85;0.80;;;;;;;8.19;46.01;100566.19;10484663;28;20558;-42
2023/10/06 11:55:14;;;;;;;0.45;0.30;;;;;;;8.31;46.67;100569.50;10464149;28;20045;-45
2023/10/06 12:00:33;;;;;;;0.47;0.38;;;;;;;8.34;47.02;100569.84;10467897;28;20132;-45
2023/10/06 12:05:36;;;;;;;0.38;0.30;;;;;;;8.41;48.01;100573.13;10473471;28;20551;-46
2023/10/06 12:10:50;;;;;;;0.82;0.38;;;;;;;8.38;47.46;100581.06;10481254;28;20044;-46
2023/10/06 12:15:52;;;;;;;1.55;0.40;;;;;;;8.45;48.36;100578.88;10484356;28;20045;-49
2023/10/06 12:20:55;;;;;;;1.02;0.57;;;;;;;8.30;48.33;100562.41;10490307;28;20103;-47
2023/10/06 12:25:58;;;;;;;1.45;0.40;;;;;;;8.36;46.93;100554.00;10481169;28;20048;-49
2023/10/06 12:31:03;;;;;;;0.50;0.30;;;;;;;8.36;48.19;100548.53;10484352;28;20053;-48
2023/10/06 12:36:08;;;;;;;0.40;0.40;;;;;;;8.47;47.21;100549.34;10486555;28;20512;-46
2023/10/06 12:41:12;;;;;;;0.38;0.38;;;;;;;8.49;47.90;100549.09;10485403;28;20035;-41
2023/10/06 12:46:14;;;;;;;2.05;0.55;;;;;;;8.48;47.84;100545.53;10487901;28;20032;-46
2023/10/06 12:51:16;;;;;;;0.80;0.50;;;;;;;8.65;50.05;100537.91;10486272;28;20037;-43
2023/10/06 12:56:19;;;;;;;1.02;0.30;;;;;;;8.80;49.47;100541.75;10479954;28;20056;-47
2023/10/06 13:01:25;;;;;;;0.82;0.60;;;;;;;8.60;48.12;100542.56;10478581;28;20037;-42
2023/10/06 13:06:30;;;;;;;0.80;0.52;;;;;;;8.26;48.02;100539.44;10495131;28;20036;-46
2023/10/06 13:11:32;;;;;;;1.23;0.55;;;;;;;8.66;49.66;100525.88;10500096;28;20507;-43
2023/10/06 13:16:35;;;;;;;0.80;0.45;;;;;;;8.54;49.61;100533.53;10504907;28;20068;-44
2023/10/06 13:21:38;;;;;;;1.50;0.50;;;;;;;8.62;49.51;100534.91;10490457;28;20939;-44
2023/10/06 13:26:43;;;;;;;1.17;0.75;;;;;;;8.60;49.18;100543.38;10486517;28;20519;-42
2023/10/06 13:31:47;;;;;;;1.73;1.15;;;;;;;8.55;51.58;100545.28;10488343;28;20055;-41
2023/10/06 13:36:49;;;;;;;2.28;0.52;;;;;;;8.13;49.60;100540.72;10491819;28;20697;-45
2023/10/06 13:41:52;;;;;;;0.98;0.45;;;;;;;8.06;50.29;100546.47;10484475;28;20029;-41
2023/10/06 13:46:54;;;;;;;1.00;0.80;;;;;;;7.90;51.54;100544.75;10484920;28;20040;-43
2023/10/06 13:51:57;;;;;;;1.25;0.70;;;;;;;8.27;51.71;100552.81;10482627;28;20041;-45
2023/10/06 13:57:00;;;;;;;2.05;0.65;;;;;;;8.56;51.53;100542.28;10490535;28;20074;-44
2023/10/06 14:02:03;;;;;;;1.65;0.80;;;;;;;8.50;51.88;100542.53;10485797;28;20037;-44
2023/10/06 14:07:06;;;;;;;2.40;1.02;;;;;;;8.50;50.64;100539.78;10488076;28;20516;-46
2023/10/06 14:12:13;;;;;;;4.45;1.20;;;;;;;8.37;51.99;100532.94;10487225;28;20131;-43
2023/10/06 14:17:20;;;;;;;1.75;1.10;;;;;;;9.14;51.77;100520.16;10481278;28;20429;-42
2023/10/06 14:22:24;;;;;;;3.78;1.90;;;;;;;9.13;51.29;100524.81;10481318;28;20048;-41
2023/10/06 14:27:27;;;;;;;1.65;0.98;;;;;;;9.69;51.96;100522.00;10466123;28;20037;-45
2023/10/06 14:32:39;;;;;;;1.58;1.00;;;;;;;9.58;51.87;100523.13;10472434;28;20049;-46
2023/10/06 14:38:04;;;;;;;1.90;1.02;;;;;;;9.79;52.58;100513.75;10490741;28;20416;-42
2023/10/06 14:48:27;;;;;;;2.92;0.90;;;;;;;9.65;52.62;100512.69;10489098;28;20052;-40
2023/10/06 14:53:29;;;;;;;2.83;1.02;;;;;;;9.41;53.26;100522.63;10507535;28;20040;-40
2023/10/06 14:58:32;;;;;;;1.80;1.20;;;;;;;9.25;54.30;100517.16;10490210;28;20094;-41
2023/10/06 15:03:34;;;;;;;3.20;1.20;;;;;;;9.05;54.92;100511.69;10507837;28;20036;-40
2023/10/06 15:08:37;;;;;;;2.33;1.40;;;;;;;9.12;55.89;100506.75;10482231;28;20055;-41
2023/10/06 15:13:39;;;;;;;3.58;1.75;;;;;;;9.06;56.93;100497.72;10461762;28;20044;-44
2023/10/06 15:18:44;;;;;;;3.92;2.13;;;;;;;9.09;56.62;100493.63;10500209;28;20535;-44
2023/10/06 15:23:50;;;;;;;4.15;2.10;;;;;;;9.09;56.45;100495.53;10485794;28;20043;-41
2023/10/06 15:28:56;;;;;;;5.07;2.20;;;;;;;8.88;58.24;100486.53;10484433;28;20463;-41
2023/10/06 15:33:58;;;;;;;5.10;2.22;;;;;;;8.99;57.34;100474.47;10471781;28;20067;-41
2023/10/06 15:39:22;;;;;;;4.88;2.30;;;;;;;9.00;58.11;100460.50;10484780;28;20052;-41
2023/10/06 15:44:26;;;;;;;7.05;3.00;;;;;;;8.95;58.21;100444.09;10496012;28;20033;-39
2023/10/06 15:49:29;;;;;;;4.07;2.17;;;;;;;9.40;57.52;100439.63;10487342;28;20416;-41
2023/10/06 15:54:32;;;;;;;5.78;2.35;;;;;;;9.28;57.57;100430.91;10485040;28;20045;-44
2023/10/06 15:59:37;;;;;;;6.32;2.53;;;;;;;9.52;58.28;100417.41;10485300;28;20060;-43
2023/10/06 16:04:40;;;;;;;3.38;1.70;;;;;;;9.65;57.23;100403.94;10476978;28;20056;-42
2023/10/06 16:09:42;;;;;;;3.30;1.80;;;;;;;9.28;57.40;100393.38;10472489;28;20044;-44
2023/10/06 16:14:44;;;;;;;3.78;1.70;;;;;;;9.87;57.86;100389.84;10484408;28;20040;-47
2023/10/06 16:19:46;;;;;;;6.60;1.80;;;;;;;10.06;57.07;100383.69;10482518;28;20028;-44
2023/10/06 16:24:49;;;;;;;1.88;1.42;;;;;;;9.59;57.54;100377.66;10475546;28;20033;-46
2023/10/06 16:29:51;;;;;;;3.08;1.50;;;;;;;9.37;57.37;100366.22;10483267;28;20190;-46
2023/10/06 16:34:53;;;;;;;2.85;1.17;;;;;;;9.27;55.79;100347.13;10475608;28;20037;-45
2023/10/06 16:39:55;;;;;;;3.58;1.90;;;;;;;8.77;58.03;100340.69;10486943;28;20036;-43
2023/10/06 16:44:58;;;;;;;4.78;1.80;;;;;;;8.54;58.91;100328.41;10488276;28;20054;-45
2023/10/06 16:50:02;;;;;;;2.38;1.60;;;;;;;8.82;59.46;100321.50;10482663;28;20132;-45
2023/10/06 16:55:06;;;;;;;2.90;1.33;;;;;;;9.12;58.71;100315.13;10497018;28;20419;-39
2023/10/06 17:00:09;;;;;;;1.70;1.40;;;;;;;8.90;58.34;100301.81;10490328;28;20035;-45
2023/10/06 17:05:13;;;;;;;3.78;1.40;;;;;;;9.05;58.51;100287.25;10514348;28;20052;-45
2023/10/06 17:10:15;;;;;;;2.38;1.10;;;;;;;9.05;58.88;100281.78;10506288;28;20036;-44
2023/10/06 17:15:17;;;;;;;1.98;1.00;;;;;;;8.92;58.33;100272.25;10497246;28;20051;-43
2023/10/06 17:20:21;;;;;;;2.40;1.10;;;;;;;8.68;60.13;100261.13;10489017;28;20029;-45
2023/10/06 17:25:23;;;;;;;1.52;1.00;;;;;;;8.92;58.72;100252.28;10466477;28;20040;-45
2023/10/06 17:30:26;;;;;;;2.13;1.10;;;;;;;9.44;57.77;100242.72;10487886;28;20516;-45
2023/10/06 17:35:29;;;;;;;2.70;1.02;;;;;;;9.45;57.21;100247.09;10484155;28;20037;-42
2023/10/06 17:40:31;;;;;;;1.80;1.13;;;;;;;9.38;57.88;100232.91;10482947;28;20037;-43
2023/10/06 17:45:37;;;;;;;1.55;1.00;;;;;;;9.35;58.05;100226.88;10486100;28;20033;-43
2023/10/06 17:50:47;;;;;;;3.33;1.23;;;;;;;8.51;58.17;100216.84;10481529;28;20037;-40
2023/10/06 17:55:52;;;;;;;2.92;1.42;;;;;;;8.67;59.46;100215.69;10470031;28;20039;-40
2023/10/06 18:00:55;;;;;;;3.42;1.52;;;;;;;8.65;59.29;100206.94;10488962;28;20043;-45
2023/10/06 18:05:57;;;;;;;3.15;1.55;;;;;;;8.67;59.78;100203.94;10483124;28;20033;-41
2023/10/06 18:10:59;;;;;;;2.30;1.38;;;;;;;8.60;60.66;100200.69;10483830;28;20037;-42
2023/10/06 18:16:05;;;;;;;2.25;1.50;;;;;;;8.29;60.13;100180.78;10482035;28;20040;-40
2023/10/06 18:21:12;;;;;;;2.15;1.48;;;;;;;8.62;60.10;100174.69;10484785;28;20052;-43
2023/10/06 18:26:18;;;;;;;4.25;1.88;;;;;;;8.54;58.93;100158.06;10478749;28;20041;-40
2023/10/06 18:31:21;;;;;;;2.88;1.63;;;;;;;8.54;58.89;100149.84;10478878;28;20059;-40
2023/10/06 18:36:24;;;;;;;2.35;1.30;;;;;;;8.56;58.96;100145.72;10484024;28;20059;-41
2023/10/06 18:41:26;;;;;;;3.15;1.85;;;;;;;8.66;59.00;100126.53;10483200;28;20036;-42
2023/10/06 18:46:28;;;;;;;2.88;1.98;;;;;;;8.13;59.62;100120.69;10484358;28;20048;-44
2023/10/06 18:51:31;;;;;;;3.92;1.92;;;;;;;8.29;59.08;100104.25;10481755;28;20037;-41
2023/10/06 18:56:37;;;;;;;9.52;1.85;;;;;;;8.18;59.46;100092.53;10482329;28;20037;-42
2023/10/06 19:01:39;;;;;;;6.40;1.92;;;;;;;8.05;58.61;100084.94;10483635;28;20029;-42
2023/10/06 19:06:41;;;;;;;4.10;2.20;;;;;;;7.94;60.26;100064.19;10483641;28;20044;-43
2023/10/06 19:11:44;;;;;;;2.88;1.80;;;;;;;7.74;60.55;100051.41;10478221;28;20032;-43
2023/10/06 19:16:46;;;;;;;3.90;1.88;;;;;;;7.75;59.66;100044.84;10461679;28;20037;-43
2023/10/06 19:21:49;;;;;;;4.20;1.80;;;;;;;7.56;60.04;100026.31;10482553;28;20036;-44
2023/10/06 19:26:51;;;;;;;6.28;2.28;;;;;;;8.02;60.20;100011.72;10483306;28;20091;-42
2023/10/06 19:31:54;;;;;;;3.67;2.38;;;;;;;7.80;58.91;100009.31;10482455;28;20041;-41
2023/10/06 19:36:56;;;;;;;4.65;2.25;;;;;;;7.45;61.79;99988.38;10462420;28;20534;-43
2023/10/06 19:41:58;;;;;;;2.45;1.60;;;;;;;7.69;60.08;99969.50;10483218;28;20059;-42
2023/10/06 19:47:01;;;;;;;4.25;2.10;;;;;;;7.74;59.37;99956.63;10479841;28;20555;-42
2023/10/06 19:52:03;;;;;;;3.92;2.05;;;;;;;7.29;59.89;99941.22;10483078;28;20052;-42
2023/10/06 19:57:05;;;;;;;4.95;1.77;;;;;;;7.14;61.36;99931.16;10481904;28;20037;-45
2023/10/06 20:02:09;;;;;;;2.42;1.50;;;;;;;6.94;60.48;99915.66;10488330;28;20043;-42
2023/10/06 20:07:11;;;;;;;5.38;1.67;;;;;;;6.61;62.30;99922.47;10482674;28;20064;-47
2023/10/06 20:12:14;;;;;;;2.03;1.60;;;;;;;6.70;62.29;99903.66;10482186;28;20416;-47
2023/10/06 20:17:16;;;;;;;2.83;1.40;;;;;;;6.62;62.67;99876.97;10489778;28;20044;-49
2023/10/06 20:22:18;;;;;;;4.13;1.92;;;;;;;6.62;61.94;99861.41;10489824;28;20048;-48
2023/10/06 20:27:21;;;;;;;2.05;1.13;;;;;;;6.46;63.06;99854.34;10492891;28;20044;-46
2023/10/06 20:32:24;;;;;;;2.20;1.40;;;;;;;6.45;63.43;99841.81;10493053;28;20138;-47
2023/10/06 20:37:26;;;;;;;1.65;1.00;;;;;;;6.63;62.38;99833.06;10503963;28;20036;-42
2023/10/06 20:42:30;;;;;;;1.80;1.20;;;;;;;6.67;63.25;99816.16;10488699;28;20035;-43
2023/10/06 20:47:32;;;;;;;3.22;1.05;;;;;;;6.44;63.86;99793.03;10492917;28;20052;-42
2023/10/06 20:52:35;;;;;;;2.13;1.20;;;;;;;6.47;63.41;99784.31;10470881;28;20047;-42
2023/10/06 20:57:37;;;;;;;1.67;1.35;;;;;;;6.39;64.39;99763.84;10478547;28;20036;-42
2023/10/06 21:02:41;;;;;;;5.93;1.85;;;;;;;6.54;64.59;99743.94;10449008;28;20033;-40
2023/10/06 21:07:43;;;;;;;3.58;1.90;;;;;;;6.25;64.99;99735.56;10485488;28;20400;-41
2023/10/06 21:12:46;;;;;;;2.65;1.70;;;;;;;6.23;65.47;99724.91;10451969;28;20051;-41
2023/10/06 21:17:52;;;;;;;4.97;2.40;;;;;;;6.01;65.56;99716.22;10487635;28;20037;-41
2023/10/06 21:22:56;;;;;;;3.15;2.10;;;;;;;6.27;65.22;99692.50;10488192;28;20041;-40
2023/10/06 21:27:58;;;;;;;4.93;2.30;;;;;;;6.02;65.19;99671.56;10486784;28;20045;-42
2023/10/06 21:33:01;;;;;;;2.78;1.65;;;;;;;5.84;65.91;99650.31;10486776;28;20063;-42
2023/10/06 21:38:03;;;;;;;4.45;2.20;;;;;;;5.67;66.63;99637.00;10488211;28;20041;-41
2023/10/06 21:43:06;;;;;;;2.75;1.60;;;;;;;5.78;66.62;99608.69;10487571;28;20048;-41
2023/10/06 21:48:09;;;;;;;3.15;1.40;;;;;;;5.66;65.98;99594.56;10485506;28;20520;-40
2023/10/06 21:53:11;;;;;;;2.10;1.60;;;;;;;5.71;66.64;99589.09;10486185;28;20048;-41
2023/10/06 21:58:13;;;;;;;2.58;1.40;;;;;;;5.56;67.02;99562.75;10488333;28;20049;-41
2023/10/06 22:03:15;;;;;;;1.23;0.65;;;;;;;5.36;67.67;99532.81;10465406;28;20546;-40
2023/10/06 22:08:18;;;;;;;2.95;1.08;;;;;;;5.32;68.03;99518.94;10476810;28;20543;-41
2023/10/06 22:13:20;;;;;;;1.95;1.20;;;;;;;5.37;68.12;99483.56;10487245;28;20048;-41
2023/10/06 22:18:23;;;;;;;1.70;0.80;;;;;;;5.35;68.00;99458.56;10486793;28;20515;-41
2023/10/06 22:23:25;;;;;;;1.77;0.95;;;;;;;5.40;68.50;99441.44;10486882;28;20041;-41
2023/10/06 22:28:28;;;;;;;1.00;0.80;;;;;;;5.40;67.77;99416.94;10487314;28;20044;-41
2023/10/06 22:33:31;;;;;;;1.95;0.90;;;;;;;5.50;67.36;99392.41;10483486;28;20057;-43
2023/10/06 22:38:34;;;;;;;1.38;0.70;;;;;;;5.41;67.30;99364.16;10481253;28;20037;-41
2023/10/06 22:43:37;;;;;;;1.73;0.63;;;;;;;5.80;66.62;99342.47;10486407;28;20045;-44
2023/10/06 22:48:39;;;;;;;1.85;0.65;;;;;;;5.80;66.85;99308.97;10484316;28;20048;-41
2023/10/06 22:53:43;;;;;;;2.63;0.60;;;;;;;5.82;65.46;99279.56;10486404;28;20586;-41
2023/10/06 22:58:45;;;;;;;0.57;0.50;;;;;;;5.85;65.44;99249.88;10485132;28;20033;-42
2023/10/06 23:03:47;;;;;;;1.55;0.52;;;;;;;5.91;66.01;99234.34;10480046;28;20033;-40
2023/10/06 23:08:50;;;;;;;1.05;0.60;;;;;;;6.04;65.16;99217.34;10484429;28;20420;-40
2023/10/06 23:13:52;;;;;;;1.73;0.80;;;;;;;5.87;65.47;99189.69;10485497;28;20033;-42
2023/10/06 23:18:55;;;;;;;2.03;0.88;;;;;;;6.13;64.47;99168.53;10484868;28;20036;-41
2023/10/06 23:24:07;;;;;;;0.50;0.50;;;;;;;6.04;64.52;99135.66;10484778;28;20428;-41
2023/10/06 23:29:12;;;;;;;0.60;0.38;;;;;;;6.01;65.03;99104.38;10466140;28;20547;-44
2023/10/06 23:34:14;;;;;;;1.48;0.93;;;;;;;5.67;67.24;99087.28;10483300;28;20044;-42
2023/10/06 23:39:18;;;;;;;0.60;0.50;;;;;;;5.40;68.58;99057.88;10465629;28;20043;-43
2023/10/06 23:44:20;;;;;;;0.52;0.40;;;;;;;5.59;69.82;99031.56;10482677;28;20504;-45